Aylett, VA

3:03 PM EDT on July 04, 2015 (GMT -0400)
Rose Garden Estates | | Change Station
CLOSE
Current Station
Personal Weather Station
Location: Aylett, VA
Elevation: 154 ft
Nearby Weather Stations

Elev 154 ft 37.78 °N, 77.14 °W | Updated 10 seconds ago

Mostly Cloudy
Mostly Cloudy
83.9 °F
Feels Like 91 °F
N
3.0
Wind Variable Wind from WSW
Gusts 5.0 mph

Today
High -- | Low -- °F
--% Chance of Precip.
Yesterday
High -- | Low -- °F
Precip. -- in
5:51 AM 8:34 PM
Waning Gibbous, 91% visible
Pressure 29.93 in
Visibility 10.0 miles
Clouds Few 2700 ft
Scattered Clouds 4500 ft
Mostly Cloudy 6000 ft
Heat Index 91 °F
Dew Point 74 °F
Humidity 71%
Rainfall 0.00 in
Snow Depth Not available.
UV 6 out of 12
Pollen 1.30 out of 12
Air Quality Not available.
Flu Activity Not available.
METAR KOFP 041854Z AUTO 31004KT 10SM FEW027 SCT045 BKN060 28/22 A2993 RMK AO2 SLP133 T02830217

More Conditions Fewer Conditions

Pressure 29.93 in
Visibility 10.0 miles
Clouds Few 2700 ft
Scattered Clouds 4500 ft
Mostly Cloudy 6000 ft
Heat Index 91 °F
Dew Point 74 °F
Humidity 71%
Rainfall 0.00 in
Snow Depth Not available.
UV 6 out of 12
Pollen 1.30 out of 12
Air Quality Not available.
Flu Activity Not available.
METAR KOFP 041854Z AUTO 31004KT 10SM FEW027 SCT045 BKN060 28/22 A2993 RMK AO2 SLP133 T02830217

More Conditions Fewer Conditions

10-Day Weather Forecast

×

Almanac

Astronomy

Jul. 04, 2015 Rise Set
Actual Time
Civil Twilight
Nautical Twilight
Astronomical Twilight
Moon
Length of Visible Light
Length of Day
Tomorrow will be .
, % of the Moon is Illuminated

Today's Extremes

State Highs State Lows

Community

WunderPhotos

Upload Photos

1,835,057 photos uploaded!

WunderBlogs® & News

Nearby

Air Quality

  Air Quality AQ Index Pollutant
Not available.

Snow Depth

Station Depth Elevation

Earthquake Activity

City Distance Mag. Time & Date
Minimum magnitude displayed is 2.5.

Coastal Water Temperatures

Place Temperature

Stations

Nearby Weather Stations

Station Location Temp. Windchill Dew Point Humidity Wind Precip. Elev Updated Type